createdAt,value
2023-03-16T00:00:40.289Z,2.67
2023-03-16T00:03:08.539Z,2.70
2023-03-16T00:05:35.210Z,2.30
2023-03-16T00:08:01.876Z,2.40
2023-03-16T00:10:28.826Z,2.30
2023-03-16T00:12:56.368Z,2.20
2023-03-16T00:15:23.319Z,2.20
2023-03-16T00:17:49.975Z,3.30
2023-03-16T00:20:18.683Z,2.13
2023-03-16T00:22:45.376Z,2.20
2023-03-16T00:25:13.732Z,2.57
2023-03-16T00:27:41.151Z,1.60
2023-03-16T00:30:09.224Z,2.87
2023-03-16T00:32:37.328Z,2.30
2023-03-16T00:35:09.124Z,2.07
2023-03-16T00:37:37.901Z,2.27
2023-03-16T00:40:05.504Z,1.70
2023-03-16T00:42:32.193Z,1.90
2023-03-16T00:44:59.798Z,1.80
2023-03-16T00:47:27.999Z,2.07
2023-03-16T00:49:55.015Z,2.07
2023-03-16T00:52:21.917Z,2.60
2023-03-16T00:54:50.474Z,2.13
2023-03-16T00:57:19.088Z,2.07
2023-03-16T00:59:46.327Z,1.90
2023-03-16T01:02:13.741Z,2.20
2023-03-16T01:04:40.690Z,1.70
2023-03-16T01:07:08.095Z,2.80
2023-03-16T01:09:34.953Z,2.17
2023-03-16T01:12:03.440Z,2.20
2023-03-16T01:14:30.112Z,2.30
2023-03-16T01:16:56.927Z,1.90
2023-03-16T01:19:23.633Z,2.70
2023-03-16T01:21:50.270Z,2.33
2023-03-16T01:24:16.930Z,2.90
2023-03-16T01:26:43.674Z,2.00
2023-03-16T01:29:11.884Z,2.40
2023-03-16T01:31:38.637Z,2.03
2023-03-16T01:34:05.293Z,1.80
2023-03-16T01:36:33.643Z,1.87
2023-03-16T01:39:00.334Z,2.07
2023-03-16T01:41:27.245Z,2.77
2023-03-16T01:43:54.061Z,1.67
2023-03-16T01:46:25.348Z,1.87
2023-03-16T01:49:06.808Z,1.77
2023-03-16T01:51:37.693Z,2.43
2023-03-16T01:54:09.038Z,2.00
2023-03-16T01:56:39.746Z,1.80
2023-03-16T01:59:11.312Z,2.27
2023-03-16T02:01:39.772Z,2.10
2023-03-16T02:04:16.938Z,2.43
2023-03-16T02:06:44.277Z,1.40
2023-03-16T02:09:11.244Z,1.90
2023-03-16T02:11:38.231Z,2.20
2023-03-16T02:14:09.584Z,2.10
2023-03-16T02:16:36.511Z,1.93
2023-03-16T02:19:11.949Z,2.10
2023-03-16T02:21:48.946Z,2.17
2023-03-16T02:24:15.715Z,1.90
2023-03-16T02:26:47.464Z,1.93
2023-03-16T02:29:24.867Z,1.90
2023-03-16T02:31:54.256Z,1.90
2023-03-16T02:34:21.214Z,1.97
2023-03-16T02:36:49.628Z,1.60
2023-03-16T02:39:16.309Z,2.10
2023-03-16T02:41:43.190Z,1.70
2023-03-16T02:44:14.655Z,1.93
2023-03-16T02:46:42.746Z,1.80
2023-03-16T02:49:15.431Z,1.77
2023-03-16T02:51:42.512Z,2.00
2023-03-16T02:54:09.200Z,1.93
2023-03-16T02:56:35.860Z,1.63
2023-03-16T02:59:02.570Z,1.73
2023-03-16T03:01:29.256Z,1.40
2023-03-16T03:03:55.980Z,1.50
2023-03-16T03:06:24.035Z,1.93
2023-03-16T03:08:52.082Z,2.00
2023-03-16T03:11:18.767Z,2.00
2023-03-16T03:13:45.648Z,2.00
2023-03-16T03:16:12.388Z,2.30
2023-03-16T03:18:39.556Z,2.30
2023-03-16T03:21:06.685Z,1.63
2023-03-16T03:23:34.715Z,1.80
2023-03-16T03:26:02.076Z,1.80
2023-03-16T03:28:28.801Z,2.07
2023-03-16T03:30:55.785Z,1.20
2023-03-16T03:33:22.662Z,1.50
2023-03-16T03:35:54.117Z,1.60
2023-03-16T03:38:20.804Z,1.73
2023-03-16T03:40:50.602Z,1.80
2023-03-16T03:43:17.364Z,1.90
2023-03-16T03:45:44.176Z,1.80
2023-03-16T03:48:10.855Z,1.30
2023-03-16T03:50:37.563Z,2.33
2023-03-16T03:53:04.275Z,2.07
2023-03-16T03:55:31.400Z,2.10
2023-03-16T03:57:59.352Z,2.00
2023-03-16T04:00:26.475Z,2.00
2023-03-16T04:02:53.360Z,2.00
2023-03-16T04:05:20.175Z,0.80
2023-03-16T04:07:46.854Z,1.30
2023-03-16T04:10:13.545Z,1.60
2023-03-16T04:12:40.531Z,0.80
2023-03-16T04:15:09.922Z,1.70
2023-03-16T04:17:36.610Z,0.97
2023-03-16T04:20:03.667Z,1.30
2023-03-16T04:22:30.347Z,1.50
2023-03-16T04:24:56.990Z,1.40
2023-03-16T04:27:23.713Z,1.10
2023-03-16T04:29:50.356Z,1.60
2023-03-16T04:32:18.333Z,1.60
2023-03-16T04:34:45.072Z,1.87
2023-03-16T04:37:11.747Z,1.53
2023-03-16T04:39:38.503Z,1.33
2023-03-16T04:42:05.583Z,1.60
2023-03-16T04:44:32.234Z,1.30
2023-03-16T04:46:58.892Z,1.50
2023-03-16T04:49:26.876Z,1.43
2023-03-16T04:51:53.537Z,1.73
2023-03-16T04:54:20.207Z,1.90
2023-03-16T04:56:46.858Z,1.40
2023-03-16T04:59:13.614Z,1.30
2023-03-16T05:01:40.529Z,1.50
2023-03-16T05:04:07.238Z,1.53
2023-03-16T05:06:35.256Z,1.90
2023-03-16T05:09:02.172Z,1.40
2023-03-16T05:11:28.934Z,1.43
2023-03-16T05:13:55.737Z,1.10
2023-03-16T05:16:22.462Z,1.57
2023-03-16T05:18:49.198Z,1.60
2023-03-16T05:21:15.901Z,1.30
2023-03-16T05:23:43.873Z,1.47
2023-03-16T05:26:10.556Z,1.80
2023-03-16T05:28:37.208Z,1.60
2023-03-16T05:31:03.984Z,1.50
2023-03-16T05:33:30.671Z,1.50
2023-03-16T05:35:57.627Z,1.37
2023-03-16T05:38:24.477Z,1.47
2023-03-16T05:40:52.459Z,1.93
2023-03-16T05:43:19.589Z,1.77
2023-03-16T05:45:46.414Z,1.37
2023-03-16T05:48:13.798Z,2.17
2023-03-16T05:50:40.875Z,1.50
2023-03-16T05:53:07.582Z,1.77
2023-03-16T05:55:34.313Z,1.70
2023-03-16T05:58:03.809Z,2.00
2023-03-16T06:00:32.255Z,2.97
2023-03-16T06:02:59.339Z,1.97
2023-03-16T06:05:25.974Z,1.98
2023-03-16T06:07:52.667Z,1.83
2023-03-16T06:10:19.535Z,1.77
2023-03-16T06:12:46.425Z,1.70
2023-03-16T06:15:14.440Z,2.27
2023-03-16T06:17:41.261Z,2.50
2023-03-16T06:20:10.429Z,2.03
2023-03-16T06:22:37.509Z,2.07
2023-03-16T06:25:04.659Z,2.37
2023-03-16T06:27:31.427Z,2.20
2023-03-16T06:29:58.148Z,2.00
2023-03-16T06:32:26.193Z,2.30
2023-03-16T06:34:53.038Z,2.63
2023-03-16T06:37:19.805Z,1.87
2023-03-16T06:39:46.621Z,2.17
2023-03-16T06:42:13.367Z,2.53
2023-03-16T06:44:40.239Z,2.97
2023-03-16T06:47:07.345Z,2.40
2023-03-16T06:49:35.847Z,1.93
2023-03-16T06:52:02.620Z,2.50
2023-03-16T06:54:29.620Z,2.50
2023-03-16T06:56:56.258Z,2.70
2023-03-16T06:59:23.002Z,2.87
2023-03-16T07:01:49.817Z,2.27
2023-03-16T07:04:16.774Z,2.77
2023-03-16T07:06:44.900Z,2.60
2023-03-16T07:09:11.727Z,2.83
2023-03-16T07:11:38.519Z,2.80
2023-03-16T07:14:05.508Z,3.20
2023-03-16T07:16:32.372Z,1.80
2023-03-16T07:18:59.079Z,2.50
2023-03-16T07:21:25.898Z,2.20
2023-03-16T07:23:53.949Z,2.70
2023-03-16T07:26:20.635Z,2.30
2023-03-16T07:28:47.484Z,2.40
2023-03-16T07:31:14.476Z,1.90
2023-03-16T07:33:41.665Z,3.27
2023-03-16T07:36:09.131Z,3.03
2023-03-16T07:38:35.961Z,1.60
2023-03-16T07:41:04.251Z,2.00
2023-03-16T07:43:31.215Z,2.87
2023-03-16T07:45:58.781Z,2.37
2023-03-16T07:48:25.695Z,1.60
2023-03-16T07:50:52.593Z,3.30
2023-03-16T07:53:19.278Z,2.50
2023-03-16T07:55:46.515Z,3.00
2023-03-16T07:58:14.594Z,2.00
2023-03-16T08:00:41.367Z,1.90
2023-03-16T08:03:08.315Z,2.40
2023-03-16T08:05:35.202Z,2.53
2023-03-16T08:08:02.018Z,2.33
2023-03-16T08:10:30.167Z,2.80
2023-03-16T08:12:57.420Z,2.90
2023-03-16T08:15:25.743Z,2.67
2023-03-16T08:17:52.485Z,2.67
2023-03-16T08:20:19.506Z,2.23
2023-03-16T08:22:46.547Z,2.43
2023-03-16T08:25:14.964Z,1.90
2023-03-16T08:27:41.725Z,3.30
2023-03-16T08:30:12.162Z,2.40
2023-03-16T08:32:40.922Z,3.00
2023-03-16T08:35:09.798Z,2.90
2023-03-16T08:37:36.991Z,2.30
2023-03-16T08:40:04.268Z,3.60
2023-03-16T08:42:32.952Z,3.00
2023-03-16T08:44:59.618Z,2.87
2023-03-16T08:47:26.440Z,3.90
2023-03-16T08:49:54.493Z,2.20
2023-03-16T08:52:21.289Z,2.37
2023-03-16T08:55:01.964Z,2.53
2023-03-16T08:57:30.014Z,3.87
2023-03-16T08:59:57.078Z,3.20
2023-03-16T09:02:24.090Z,2.40
2023-03-16T09:04:51.105Z,1.97
2023-03-16T09:07:19.397Z,1.50
2023-03-16T09:09:46.342Z,1.97
2023-03-16T09:12:13.279Z,2.00
2023-03-16T09:14:40.262Z,1.20
2023-03-16T09:17:07.729Z,1.93
2023-03-16T09:19:54.390Z,1.60
2023-03-16T09:22:24.237Z,1.90
2023-03-16T09:24:51.158Z,2.93
2023-03-16T09:27:19.166Z,2.10
2023-03-16T09:29:46.353Z,2.30
2023-03-16T09:32:13.416Z,1.80
2023-03-16T09:34:40.771Z,2.00
2023-03-16T09:37:08.555Z,1.10
2023-03-16T09:39:37.170Z,1.57
2023-03-16T09:42:13.989Z,1.53
2023-03-16T09:44:50.948Z,1.13
2023-03-16T09:47:24.024Z,1.30
2023-03-16T09:49:51.839Z,1.70
2023-03-16T09:52:28.658Z,1.50
2023-03-16T09:55:01.567Z,1.20
2023-03-16T09:57:30.938Z,1.50
2023-03-16T10:00:02.641Z,2.00
2023-03-16T10:02:44.955Z,1.60
2023-03-16T10:05:14.029Z,1.90
2023-03-16T10:07:49.660Z,1.77
2023-03-16T10:10:30.475Z,1.50
2023-03-16T10:13:00.785Z,1.47
2023-03-16T10:15:32.730Z,1.43
2023-03-16T10:18:03.735Z,1.60
2023-03-16T10:20:33.919Z,1.70
2023-03-16T10:23:13.182Z,1.17
2023-03-16T10:25:46.361Z,2.17
2023-03-16T10:28:16.451Z,2.10
2023-03-16T10:30:43.970Z,1.87
2023-03-16T10:33:19.470Z,1.30
2023-03-16T10:35:47.543Z,1.53
2023-03-16T10:38:28.649Z,1.70
2023-03-16T10:40:56.751Z,1.90
2023-03-16T10:43:24.101Z,1.30
2023-03-16T10:45:51.106Z,1.33
2023-03-16T10:48:20.261Z,1.30
2023-03-16T10:50:52.139Z,1.10
2023-03-16T10:53:24.261Z,1.77
2023-03-16T10:55:57.068Z,0.97
2023-03-16T10:58:30.851Z,0.93
2023-03-16T11:00:58.368Z,1.33
2023-03-16T11:03:39.379Z,1.27
2023-03-16T11:06:08.359Z,1.23
2023-03-16T11:08:37.535Z,1.10
2023-03-16T11:11:10.638Z,1.57
2023-03-16T11:13:45.925Z,1.03
2023-03-16T11:16:23.578Z,1.23
2023-03-16T11:18:54.702Z,0.80
2023-03-16T11:21:30.183Z,1.40
2023-03-16T11:23:58.645Z,1.40
2023-03-16T11:26:31.187Z,1.50
2023-03-16T11:32:24.141Z,2.10
2023-03-16T11:34:51.112Z,1.80
2023-03-16T11:37:32.778Z,1.27
2023-03-16T11:40:07.327Z,1.20
2023-03-16T11:42:40.066Z,1.53
2023-03-16T11:45:17.305Z,1.80
2023-03-16T11:48:06.768Z,1.40
2023-03-16T11:50:44.182Z,1.10
2023-03-16T11:53:24.633Z,1.43
2023-03-16T11:56:04.038Z,1.47
2023-03-16T11:58:50.203Z,1.67
2023-03-16T12:01:23.982Z,1.00
2023-03-16T12:04:12.477Z,0.87
2023-03-16T12:07:04.344Z,1.23
2023-03-16T12:09:48.696Z,1.60
2023-03-16T12:12:26.773Z,0.83
2023-03-16T12:15:17.065Z,1.33
2023-03-16T12:17:45.613Z,0.80
2023-03-16T12:24:01.505Z,1.27
2023-03-16T12:26:32.534Z,1.33
2023-03-16T12:29:01.297Z,1.40
2023-03-16T12:31:37.133Z,1.50
2023-03-16T12:34:17.329Z,0.90
2023-03-16T12:37:05.443Z,1.40
2023-03-16T12:39:55.025Z,1.00
2023-03-16T12:42:40.919Z,1.23
2023-03-16T12:45:16.443Z,0.70
2023-03-16T12:47:51.798Z,1.07
2023-03-16T12:50:20.051Z,1.03
2023-03-16T12:52:49.433Z,1.13
2023-03-16T12:55:19.797Z,1.00
2023-03-16T12:57:49.714Z,1.40
2023-03-16T13:00:17.333Z,1.27
2023-03-16T13:02:49.952Z,1.10
2023-03-16T13:05:27.662Z,0.67
2023-03-16T13:08:06.002Z,0.80
2023-03-16T13:10:34.731Z,0.83
2023-03-16T13:13:09.163Z,1.53
2023-03-16T13:15:35.897Z,0.87
2023-03-16T13:18:20.852Z,0.90
2023-03-16T13:20:54.588Z,1.03
2023-03-16T13:23:23.913Z,0.87
2023-03-16T13:26:14.916Z,1.17
2023-03-16T13:28:43.582Z,1.33
2023-03-16T13:31:24.167Z,1.53
2023-03-16T13:33:54.530Z,0.90
2023-03-16T13:36:21.387Z,1.70
2023-03-16T13:38:56.586Z,1.40
2023-03-16T13:41:24.603Z,1.43
2023-03-16T13:43:51.241Z,1.00
2023-03-16T13:46:19.494Z,1.73
2023-03-16T13:48:47.541Z,1.40
2023-03-16T13:51:16.690Z,1.50
2023-03-16T13:53:44.031Z,1.10
2023-03-16T13:56:14.923Z,0.93
2023-03-16T13:58:46.588Z,1.80
2023-03-16T14:01:22.684Z,1.60
2023-03-16T14:03:50.609Z,1.73
2023-03-16T14:06:22.906Z,2.87
2023-03-16T14:08:52.016Z,1.43
2023-03-16T14:11:18.841Z,2.10
2023-03-16T14:13:52.597Z,1.50
2023-03-16T14:16:20.436Z,2.00
2023-03-16T14:18:49.100Z,2.10
2023-03-16T14:21:19.487Z,2.87
2023-03-16T14:23:50.997Z,1.40
2023-03-16T14:26:19.502Z,3.10
2023-03-16T14:28:57.441Z,2.50
2023-03-16T14:31:33.432Z,2.23
2023-03-16T14:34:02.052Z,2.13
2023-03-16T14:36:35.496Z,2.07
2023-03-16T14:39:11.557Z,2.10
2023-03-16T14:41:38.905Z,1.73
2023-03-16T14:44:18.899Z,2.27
2023-03-16T14:46:45.986Z,1.73
2023-03-16T14:49:20.515Z,1.70
2023-03-16T14:51:49.072Z,1.70
2023-03-16T14:54:17.300Z,2.60
2023-03-16T14:56:48.273Z,1.60
2023-03-16T14:59:16.584Z,1.60
2023-03-16T15:01:44.027Z,1.67
2023-03-16T15:04:13.777Z,2.97
2023-03-16T15:06:40.811Z,1.90
2023-03-16T15:09:11.211Z,1.97
2023-03-16T15:11:37.910Z,1.60
2023-03-16T15:14:11.450Z,1.47
2023-03-16T15:16:39.486Z,1.50
2023-03-16T15:19:06.283Z,1.30
2023-03-16T15:21:34.233Z,1.57
2023-03-16T15:24:00.978Z,1.97
2023-03-16T15:26:29.259Z,2.37
2023-03-16T15:28:57.104Z,1.57
2023-03-16T15:31:24.198Z,1.60
2023-03-16T15:33:52.528Z,1.40
2023-03-16T15:36:21.359Z,2.13
2023-03-16T15:38:50.275Z,1.40
2023-03-16T15:41:17.199Z,1.23
2023-03-16T15:43:45.887Z,1.20
2023-03-16T15:46:13.029Z,2.30
2023-03-16T15:48:39.782Z,1.77
2023-03-16T15:51:19.478Z,1.10
2023-03-16T15:53:49.910Z,1.30
2023-03-16T15:56:20.358Z,1.27
2023-03-16T15:58:47.333Z,1.77
2023-03-16T16:01:20.198Z,1.13
2023-03-16T16:03:48.288Z,1.67
2023-03-16T16:06:16.326Z,1.03
2023-03-16T16:08:43.446Z,1.20
2023-03-16T16:11:13.937Z,1.43
2023-03-16T16:13:44.735Z,1.00
2023-03-16T16:16:13.064Z,1.50
2023-03-16T16:18:40.391Z,1.23
2023-03-16T16:21:11.837Z,0.83
2023-03-16T16:23:39.882Z,1.90
2023-03-16T16:26:16.657Z,1.33
2023-03-16T16:28:43.611Z,1.13
2023-03-16T16:31:13.491Z,1.00
2023-03-16T16:33:40.547Z,1.20
2023-03-16T16:36:13.589Z,1.20
2023-03-16T16:38:41.612Z,1.40
2023-03-16T16:41:09.475Z,1.20
2023-03-16T16:43:38.912Z,1.30
2023-03-16T16:46:12.818Z,1.20
2023-03-16T16:48:43.318Z,1.47
2023-03-16T16:51:16.380Z,1.30
2023-03-16T16:53:44.872Z,0.80
2023-03-16T16:56:13.220Z,1.53
2023-03-16T16:58:39.958Z,1.63
2023-03-16T17:01:06.678Z,1.17
2023-03-16T17:03:33.313Z,1.20
2023-03-16T17:06:00.070Z,0.90
2023-03-16T17:08:26.816Z,1.50
2023-03-16T17:10:55.015Z,1.47
2023-03-16T17:13:26.980Z,1.23
2023-03-16T17:15:54.515Z,1.10
2023-03-16T17:18:21.493Z,1.43
2023-03-16T17:20:48.302Z,2.10
2023-03-16T17:23:28.699Z,1.90
2023-03-16T17:25:59.135Z,1.37
2023-03-16T17:28:27.961Z,1.40
2023-03-16T17:30:54.756Z,1.47
2023-03-16T17:33:23.484Z,1.53
2023-03-16T17:35:50.177Z,1.17
2023-03-16T17:38:18.399Z,1.90
2023-03-16T17:40:45.660Z,1.00
2023-03-16T17:43:16.970Z,2.20
2023-03-16T17:45:45.538Z,3.17
2023-03-16T17:48:14.457Z,1.70
2023-03-16T17:50:41.159Z,1.20
2023-03-16T17:53:07.818Z,2.47
2023-03-16T17:55:34.757Z,1.80
2023-03-16T17:58:01.596Z,1.70
2023-03-16T18:00:32.366Z,1.70
2023-03-16T18:03:00.494Z,1.77
2023-03-16T18:05:28.910Z,2.10
2023-03-16T18:07:58.873Z,1.27
2023-03-16T18:10:28.469Z,1.73
2023-03-16T18:12:59.303Z,1.97
2023-03-16T18:15:31.832Z,1.00
2023-03-16T18:18:00.161Z,1.40
2023-03-16T18:20:29.115Z,1.57
2023-03-16T18:22:57.019Z,1.90
2023-03-16T18:25:32.823Z,2.20
2023-03-16T18:28:00.032Z,1.60
2023-03-16T18:30:27.498Z,1.37
2023-03-16T18:32:56.821Z,1.90
2023-03-16T18:35:23.893Z,1.90
2023-03-16T18:37:50.758Z,1.70
2023-03-16T18:40:18.899Z,1.73
2023-03-16T18:42:45.914Z,1.47
2023-03-16T18:45:14.284Z,1.93
2023-03-16T18:47:46.354Z,2.00
2023-03-16T18:50:21.265Z,1.50
2023-03-16T18:52:50.939Z,2.07
2023-03-16T18:55:22.827Z,1.60
2023-03-16T18:57:54.364Z,1.83
2023-03-16T19:00:24.092Z,1.90
2023-03-16T19:02:56.977Z,1.90
2023-03-16T19:05:32.665Z,2.33
2023-03-16T19:08:02.831Z,2.10
2023-03-16T19:10:31.893Z,2.57
2023-03-16T19:13:01.019Z,2.07
2023-03-16T19:15:42.935Z,2.53
2023-03-16T19:18:27.726Z,2.40
2023-03-16T19:20:56.476Z,2.40
2023-03-16T19:23:27.011Z,1.80
2023-03-16T19:25:54.168Z,1.87
2023-03-16T19:28:25.650Z,2.87
2023-03-16T19:30:52.303Z,2.77
2023-03-16T19:33:20.950Z,2.20
2023-03-16T19:35:51.819Z,3.30
2023-03-16T19:38:20.746Z,2.67
2023-03-16T19:40:48.890Z,1.97
2023-03-16T19:43:17.903Z,3.37
2023-03-16T19:45:45.770Z,2.27
2023-03-16T19:48:15.188Z,2.73
2023-03-16T19:50:43.026Z,2.60
2023-03-16T19:53:15.792Z,2.97
2023-03-16T19:55:44.066Z,1.83
2023-03-16T19:58:19.580Z,2.47
2023-03-16T20:00:46.545Z,2.70
2023-03-16T20:03:13.477Z,2.50
2023-03-16T20:05:40.370Z,3.30
2023-03-16T20:08:20.009Z,2.60
2023-03-16T20:10:48.516Z,2.83
2023-03-16T20:13:15.348Z,2.60
2023-03-16T20:15:42.374Z,2.90
2023-03-16T20:18:13.013Z,2.20
2023-03-16T20:20:40.625Z,2.53
2023-03-16T20:23:16.964Z,2.23
2023-03-16T20:25:44.182Z,2.83
2023-03-16T20:28:17.617Z,2.17
2023-03-16T20:30:44.938Z,3.10
2023-03-16T20:33:16.488Z,1.80
2023-03-16T20:35:43.208Z,2.53
2023-03-16T20:38:11.264Z,2.77
2023-03-16T20:40:38.888Z,2.67
2023-03-16T20:43:18.820Z,2.10
2023-03-16T20:45:45.579Z,3.07
2023-03-16T20:48:14.926Z,2.80
2023-03-16T20:50:41.956Z,2.60
2023-03-16T20:53:08.882Z,2.17
2023-03-16T20:55:35.952Z,2.10
2023-03-16T20:58:03.336Z,2.67
2023-03-16T21:00:33.910Z,2.30
2023-03-16T21:03:02.022Z,3.27
2023-03-16T21:05:29.083Z,3.90
2023-03-16T21:07:55.904Z,2.70
2023-03-16T21:10:24.141Z,2.70
2023-03-16T21:12:53.674Z,3.27
2023-03-16T21:15:24.544Z,2.97
2023-03-16T21:18:01.330Z,2.87
2023-03-16T21:20:32.199Z,4.37
2023-03-16T21:22:59.358Z,3.47
2023-03-16T21:25:28.411Z,4.10
2023-03-16T21:27:56.262Z,4.10
2023-03-16T21:30:29.738Z,3.63
2023-03-16T21:32:56.980Z,3.03
2023-03-16T21:35:31.422Z,3.23
2023-03-16T21:37:58.400Z,3.30
2023-03-16T21:40:25.097Z,2.23
2023-03-16T21:42:51.899Z,3.07
2023-03-16T21:45:18.625Z,3.37
2023-03-16T21:47:46.779Z,3.07
2023-03-16T21:50:19.140Z,2.80
2023-03-16T21:52:47.365Z,4.20
2023-03-16T21:55:23.268Z,3.53
2023-03-16T21:57:50.594Z,2.20
2023-03-16T22:00:20.166Z,3.40
2023-03-16T22:02:49.442Z,3.33
2023-03-16T22:05:28.393Z,3.60
2023-03-16T22:07:56.493Z,3.27
2023-03-16T22:10:23.339Z,4.23
2023-03-16T22:12:49.998Z,4.30
2023-03-16T22:15:16.776Z,3.27
2023-03-16T22:17:43.406Z,3.80
2023-03-16T22:20:17.200Z,4.07
2023-03-16T22:22:44.042Z,3.57
2023-03-16T22:25:17.258Z,4.60
2023-03-16T22:27:43.923Z,4.37
2023-03-16T22:30:16.740Z,3.33
2023-03-16T22:32:44.863Z,4.23
2023-03-16T22:35:32.824Z,4.10
2023-03-16T22:38:02.501Z,4.73
2023-03-16T22:40:33.166Z,4.17
2023-03-16T22:43:03.398Z,3.60
2023-03-16T22:45:32.556Z,3.50
2023-03-16T22:48:01.045Z,4.27
2023-03-16T22:50:29.948Z,4.73
2023-03-16T22:52:59.454Z,4.13
2023-03-16T22:55:32.428Z,4.00
2023-03-16T22:58:04.580Z,4.00
2023-03-16T23:00:31.392Z,3.47
2023-03-16T23:02:58.232Z,2.73
2023-03-16T23:05:27.899Z,3.93
2023-03-16T23:07:55.365Z,3.77
2023-03-16T23:10:24.176Z,2.80
2023-03-16T23:12:52.804Z,4.70
2023-03-16T23:15:21.722Z,4.83
2023-03-16T23:17:48.395Z,5.27
2023-03-16T23:20:25.381Z,3.50
2023-03-16T23:22:52.577Z,4.30
2023-03-16T23:25:19.501Z,4.53
2023-03-16T23:27:46.415Z,4.63
2023-03-16T23:30:21.196Z,4.43
2023-03-16T23:32:48.439Z,4.00
2023-03-16T23:35:17.422Z,4.70
2023-03-16T23:37:44.132Z,4.10
2023-03-16T23:40:12.113Z,3.40
2023-03-16T23:42:39.644Z,5.23
2023-03-16T23:45:10.352Z,2.13
2023-03-16T23:47:38.522Z,3.60
2023-03-16T23:50:06.799Z,4.27
2023-03-16T23:52:34.019Z,4.53
2023-03-16T23:55:00.713Z,3.40
2023-03-16T23:57:27.410Z,2.87
2023-03-16T23:59:54.108Z,3.33
